createdAt,value
2022-09-17T00:01:31.473Z,97050.78
2022-09-17T00:04:04.481Z,97047.50
2022-09-17T00:06:36.071Z,97044.16
2022-09-17T00:09:07.860Z,97044.31
2022-09-17T00:11:38.938Z,97040.88
2022-09-17T00:14:10.224Z,97049.22
2022-09-17T00:16:41.712Z,97046.63
2022-09-17T00:19:21.457Z,97035.75
2022-09-17T00:21:51.565Z,97039.34
2022-09-17T00:24:20.780Z,97031.75
2022-09-17T00:26:49.652Z,97041.13
2022-09-17T00:29:17.312Z,97040.41
2022-09-17T00:31:46.831Z,97043.31
2022-09-17T00:34:14.176Z,97035.75
2022-09-17T00:36:41.730Z,97037.56
2022-09-17T00:39:12.047Z,97045.38
2022-09-17T00:41:40.262Z,97042.78
2022-09-17T00:44:39.495Z,97040.41
2022-09-17T00:47:35.352Z,97050.19
2022-09-17T00:50:17.634Z,97052.50
2022-09-17T00:52:51.691Z,97054.06
2022-09-17T00:55:24.616Z,97051.81
2022-09-17T00:57:56.509Z,97056.09
2022-09-17T01:00:24.036Z,97052.78
2022-09-17T01:02:54.357Z,97061.47
2022-09-17T01:06:05.895Z,97053.31
2022-09-17T01:08:50.277Z,97050.03
2022-09-17T01:11:48.217Z,97044.38
2022-09-17T01:14:52.352Z,97047.53
2022-09-17T01:18:09.434Z,97043.50
2022-09-17T01:21:21.792Z,97035.00
2022-09-17T01:24:22.658Z,97034.59
2022-09-17T01:27:27.521Z,97031.25
2022-09-17T01:30:22.740Z,97027.97
2022-09-17T01:33:21.522Z,97026.03
2022-09-17T01:35:55.641Z,97027.97
2022-09-17T01:38:39.488Z,97031.00
2022-09-17T01:42:02.282Z,97025.19
2022-09-17T01:44:40.722Z,97033.31
2022-09-17T01:47:23.129Z,97026.31
2022-09-17T01:50:03.149Z,97032.63
2022-09-17T01:52:35.997Z,97030.84
2022-09-17T01:55:11.485Z,97025.75
2022-09-17T01:57:54.167Z,97023.53
2022-09-17T02:00:22.554Z,97022.69
2022-09-17T02:03:15.025Z,97024.84
2022-09-17T02:05:54.370Z,97032.69
2022-09-17T02:08:27.069Z,97027.59
2022-09-17T02:11:11.162Z,97036.66
2022-09-17T02:13:56.243Z,97040.47
2022-09-17T02:16:34.122Z,97036.63
2022-09-17T02:19:23.509Z,97044.19
2022-09-17T02:22:23.869Z,97047.31
2022-09-17T02:25:01.031Z,97043.31
2022-09-17T02:28:03.700Z,97042.50
2022-09-17T02:30:32.315Z,97045.66
2022-09-17T02:33:04.968Z,97045.09
2022-09-17T02:35:33.406Z,97044.56
2022-09-17T02:38:01.327Z,97036.31
2022-09-17T02:40:41.509Z,97040.16
2022-09-17T02:43:23.985Z,97040.25
2022-09-17T02:46:35.903Z,97046.84
2022-09-17T02:49:50.196Z,97049.97
2022-09-17T02:52:41.918Z,97047.47
2022-09-17T02:55:26.921Z,97046.59
2022-09-17T02:58:05.763Z,97038.94
2022-09-17T03:00:34.150Z,97052.78
2022-09-17T03:03:40.835Z,97049.31
2022-09-17T03:06:08.499Z,97048.13
2022-09-17T03:08:40.519Z,97054.22
2022-09-17T03:11:10.383Z,97042.84
2022-09-17T03:13:37.871Z,97044.84
2022-09-17T03:16:07.237Z,97038.13
2022-09-17T03:18:34.624Z,97040.91
2022-09-17T03:21:02.227Z,97038.75
2022-09-17T03:23:29.538Z,97038.59
2022-09-17T03:25:56.813Z,97025.00
2022-09-17T03:28:26.603Z,97022.16
2022-09-17T03:30:54.408Z,97020.22
2022-09-17T03:33:22.091Z,97016.69
2022-09-17T03:35:49.553Z,97016.94
2022-09-17T03:38:17.250Z,97012.69
2022-09-17T03:40:44.478Z,97014.19
2022-09-17T03:43:11.911Z,97015.28
2022-09-17T03:45:39.098Z,97011.41
2022-09-17T03:48:06.295Z,97009.19
2022-09-17T03:50:33.839Z,97006.69
2022-09-17T03:53:01.001Z,97000.53
2022-09-17T03:55:28.230Z,97007.25
2022-09-17T03:57:56.415Z,97001.34
2022-09-17T04:00:25.464Z,96996.28
2022-09-17T04:02:52.784Z,96998.06
2022-09-17T04:05:20.314Z,96995.00
2022-09-17T04:07:47.536Z,96988.72
2022-09-17T04:10:14.848Z,96993.34
2022-09-17T04:12:42.201Z,96993.22
2022-09-17T04:15:10.007Z,97003.41
2022-09-17T04:17:37.256Z,97007.78
2022-09-17T04:20:06.540Z,96998.50
2022-09-17T04:22:34.030Z,96993.88
2022-09-17T04:25:01.359Z,96996.84
2022-09-17T04:27:28.728Z,96989.72
2022-09-17T04:29:55.881Z,96980.44
2022-09-17T04:32:23.042Z,96976.03
2022-09-17T04:34:50.466Z,96987.75
2022-09-17T04:37:17.596Z,96983.38
2022-09-17T04:39:44.750Z,96990.41
2022-09-17T04:42:12.101Z,96983.41
2022-09-17T04:44:39.256Z,96983.97
2022-09-17T04:47:06.832Z,96980.03
2022-09-17T04:49:34.265Z,96980.94
2022-09-17T04:52:01.671Z,96978.53
2022-09-17T04:54:28.871Z,96984.44
2022-09-17T04:56:56.286Z,96990.34
2022-09-17T04:59:23.840Z,96994.47
2022-09-17T05:01:51.183Z,96995.91
2022-09-17T05:04:18.855Z,97017.66
2022-09-17T05:06:45.984Z,97019.19
2022-09-17T05:09:14.127Z,97016.97
2022-09-17T05:11:42.016Z,97013.31
2022-09-17T05:14:09.466Z,97023.22
2022-09-17T05:16:36.654Z,97029.69
2022-09-17T05:19:04.291Z,97024.63
2022-09-17T05:21:31.796Z,97015.88
2022-09-17T05:23:59.067Z,97009.53
2022-09-17T05:26:26.452Z,97014.25
2022-09-17T05:28:53.791Z,97012.63
2022-09-17T05:31:21.222Z,97011.94
2022-09-17T05:33:48.577Z,97009.59
2022-09-17T05:36:15.759Z,97007.00
2022-09-17T05:38:43.193Z,97009.34
2022-09-17T05:41:10.659Z,97004.25
2022-09-17T05:43:37.801Z,97008.66
2022-09-17T05:46:07.179Z,97005.06
2022-09-17T05:48:34.649Z,97019.53
2022-09-17T05:51:02.156Z,97022.41
2022-09-17T05:53:29.313Z,97019.53
2022-09-17T05:55:58.766Z,97029.50
2022-09-17T05:58:27.178Z,97029.91
2022-09-17T06:00:54.334Z,97030.81
2022-09-17T06:03:24.832Z,97024.06
2022-09-17T06:05:58.727Z,97013.91
2022-09-17T06:08:29.000Z,97021.81
2022-09-17T06:11:01.602Z,97028.63
2022-09-17T06:13:29.886Z,97024.28
2022-09-17T06:15:57.198Z,97006.75
2022-09-17T06:18:24.463Z,96997.53
2022-09-17T06:21:05.646Z,96998.59
2022-09-17T06:23:35.405Z,97000.91
2022-09-17T06:26:05.829Z,96999.47
2022-09-17T06:28:35.765Z,97006.69
2022-09-17T06:31:08.373Z,97012.09
2022-09-17T06:33:36.555Z,97009.81
2022-09-17T06:36:14.154Z,97013.13
2022-09-17T06:38:42.778Z,97015.06
2022-09-17T06:41:10.098Z,97029.53
2022-09-17T06:43:37.362Z,97019.81
2022-09-17T06:46:06.676Z,97025.09
2022-09-17T06:48:35.933Z,97012.09
2022-09-17T06:51:07.668Z,97031.34
2022-09-17T06:53:38.205Z,97030.78
2022-09-17T06:56:08.503Z,97033.97
2022-09-17T06:58:37.648Z,97036.53
2022-09-17T07:01:06.263Z,97038.00
2022-09-17T07:03:34.800Z,97037.06
2022-09-17T07:06:12.818Z,97038.34
2022-09-17T07:08:40.097Z,97042.41
2022-09-17T07:11:08.433Z,97028.94
2022-09-17T07:13:36.219Z,97028.28
2022-09-17T07:16:06.029Z,97025.84
2022-09-17T07:18:34.004Z,97033.91
2022-09-17T07:21:05.237Z,97032.84
2022-09-17T07:23:35.751Z,97038.53
2022-09-17T07:26:15.848Z,97042.38
2022-09-17T07:28:44.154Z,97043.13
2022-09-17T07:31:16.407Z,97053.56
2022-09-17T07:33:45.008Z,97045.19
2022-09-17T07:36:18.043Z,97059.22
2022-09-17T07:38:45.798Z,97050.47
2022-09-17T07:41:17.132Z,97061.97
2022-09-17T07:43:45.317Z,97066.97
2022-09-17T07:46:19.528Z,97059.34
2022-09-17T07:48:48.716Z,97065.75
2022-09-17T07:51:22.975Z,97062.38
2022-09-17T07:53:56.247Z,97059.84
2022-09-17T07:56:25.345Z,97048.91
2022-09-17T07:58:53.112Z,97047.50
2022-09-17T08:01:23.741Z,97048.31
2022-09-17T08:03:54.072Z,97059.09
2022-09-17T08:06:28.381Z,97049.94
2022-09-17T08:08:57.606Z,97042.75
2022-09-17T08:11:51.665Z,97055.06
2022-09-17T08:14:16.619Z,97055.03
2022-09-17T08:16:46.465Z,97046.81
2022-09-17T08:19:13.813Z,97051.97
2022-09-17T08:21:47.032Z,97045.78
2022-09-17T08:24:14.397Z,97033.16
2022-09-17T08:26:41.860Z,97031.22
2022-09-17T08:29:10.571Z,97033.00
2022-09-17T08:31:38.016Z,97032.09
2022-09-17T08:34:09.954Z,97038.59
2022-09-17T08:36:37.817Z,97042.31
2022-09-17T08:39:05.278Z,97055.53
2022-09-17T08:41:49.849Z,97049.56
2022-09-17T08:44:25.647Z,97050.75
2022-09-17T08:47:06.121Z,97050.72
2022-09-17T08:49:44.035Z,97048.69
2022-09-17T08:52:54.862Z,97025.97
2022-09-17T08:55:40.380Z,97012.81
2022-09-17T08:58:57.656Z,97017.88
2022-09-17T09:01:39.763Z,97018.44
2022-09-17T09:04:33.234Z,97037.59
2022-09-17T09:07:20.137Z,97046.66
2022-09-17T09:10:04.888Z,97050.03
2022-09-17T09:12:37.284Z,97044.09
2022-09-17T09:15:33.089Z,97058.25
2022-09-17T09:18:18.060Z,97054.91
2022-09-17T09:21:09.579Z,97049.31
2022-09-17T09:23:56.925Z,97071.59
2022-09-17T09:26:57.809Z,97073.38
2022-09-17T09:29:50.420Z,97082.66
2022-09-17T09:33:00.531Z,97078.28
2022-09-17T09:35:32.728Z,97074.75
2022-09-17T09:38:24.985Z,97065.13
2022-09-17T09:41:03.983Z,97074.38
2022-09-17T09:44:03.088Z,97069.22
2022-09-17T09:46:49.095Z,97074.00
2022-09-17T09:49:31.251Z,97072.91
2022-09-17T09:52:48.948Z,97072.91
2022-09-17T09:55:35.463Z,97068.91
2022-09-17T09:58:40.015Z,97068.00
2022-09-17T10:01:21.027Z,97076.69
2022-09-17T10:03:52.757Z,97071.22
2022-09-17T10:06:21.397Z,97069.13
2022-09-17T10:08:57.355Z,97070.47
2022-09-17T10:11:28.648Z,97076.91
2022-09-17T10:14:33.673Z,97076.72
2022-09-17T10:17:26.339Z,97071.97
2022-09-17T10:20:06.136Z,97070.47
2022-09-17T10:22:37.067Z,97077.41
2022-09-17T10:25:18.681Z,97070.47
2022-09-17T10:27:48.834Z,97083.81
2022-09-17T10:30:19.154Z,97086.78
2022-09-17T10:33:29.353Z,97089.88
2022-09-17T10:36:11.633Z,97096.06
2022-09-17T10:38:47.316Z,97073.75
2022-09-17T10:41:25.070Z,97068.66
2022-09-17T10:43:52.691Z,97067.41
2022-09-17T10:46:34.183Z,97068.81
2022-09-17T10:49:34.958Z,97086.19
2022-09-17T10:52:14.894Z,97090.97
2022-09-17T10:55:17.672Z,97084.19
2022-09-17T10:58:07.484Z,97086.44
2022-09-17T11:01:08.901Z,97087.75
2022-09-17T11:04:19.435Z,97081.34
2022-09-17T11:07:04.951Z,97089.38
2022-09-17T11:10:22.233Z,97086.31
2022-09-17T11:12:54.974Z,97082.88
2022-09-17T11:15:52.897Z,97078.84
2022-09-17T11:18:39.853Z,97088.25
2022-09-17T11:21:31.723Z,97098.94
2022-09-17T11:24:05.015Z,97107.00
2022-09-17T11:27:10.061Z,97103.06
2022-09-17T11:30:14.837Z,97098.78
2022-09-17T11:33:08.268Z,97092.84
2022-09-17T11:35:52.045Z,97087.56
2022-09-17T11:38:45.377Z,97102.41
2022-09-17T11:41:31.717Z,97088.56
2022-09-17T11:44:31.694Z,97085.28
2022-09-17T11:47:29.644Z,97091.19
2022-09-17T11:50:10.224Z,97089.34
2022-09-17T11:52:51.251Z,97083.94
2022-09-17T11:55:44.598Z,97082.09
2022-09-17T11:58:41.736Z,97083.28
2022-09-17T12:01:25.800Z,97072.59
2022-09-17T12:04:07.169Z,97073.59
2022-09-17T12:07:00.604Z,97061.56
2022-09-17T12:09:36.781Z,97070.97
2022-09-17T12:12:44.942Z,97060.75
2022-09-17T12:15:22.270Z,97069.16
2022-09-17T12:18:32.317Z,97063.56
2022-09-17T12:21:05.268Z,97057.16
2022-09-17T12:23:43.211Z,97047.75
2022-09-17T12:26:25.733Z,97038.22
2022-09-17T12:29:43.303Z,97033.28
2022-09-17T12:32:31.816Z,97034.22
2022-09-17T12:36:03.136Z,97035.22
2022-09-17T12:39:02.211Z,97032.91
2022-09-17T12:42:18.044Z,97020.78
2022-09-17T12:45:16.450Z,97012.75
2022-09-17T12:48:25.672Z,97016.47
2022-09-17T12:51:27.369Z,97011.66
2022-09-17T12:54:26.401Z,97010.31
2022-09-17T12:57:14.004Z,97009.56
2022-09-17T13:00:06.864Z,97016.75
2022-09-17T13:03:02.614Z,97022.16
2022-09-17T13:05:55.103Z,97018.13
2022-09-17T13:09:00.442Z,97017.75
2022-09-17T13:11:57.944Z,97006.06
2022-09-17T13:14:49.926Z,97001.09
2022-09-17T13:18:12.781Z,96990.31
2022-09-17T13:21:02.001Z,97000.44
2022-09-17T13:23:52.321Z,96991.31
2022-09-17T13:26:32.861Z,96986.53
2022-09-17T13:29:00.422Z,97001.00
2022-09-17T13:31:40.104Z,97007.75
2022-09-17T13:34:19.230Z,97000.25
2022-09-17T13:36:53.914Z,97002.91
2022-09-17T13:39:40.264Z,97005.16
2022-09-17T13:42:22.500Z,97010.50
2022-09-17T13:45:06.114Z,97006.66
2022-09-17T13:47:48.927Z,97017.38
2022-09-17T13:50:38.491Z,97023.97
2022-09-17T13:53:25.253Z,97026.03
2022-09-17T13:55:54.948Z,97001.94
2022-09-17T13:58:29.206Z,96988.63
2022-09-17T14:01:05.619Z,96963.47
2022-09-17T14:03:37.689Z,96962.06
2022-09-17T14:06:11.331Z,96944.19
2022-09-17T14:08:45.162Z,96937.59
2022-09-17T14:11:24.338Z,96945.22
2022-09-17T14:14:41.502Z,96931.38
2022-09-17T14:17:09.264Z,96926.56
2022-09-17T14:19:51.394Z,96935.88
2022-09-17T14:22:26.974Z,96947.53
2022-09-17T14:24:55.597Z,96944.31
2022-09-17T14:27:42.558Z,96965.00
2022-09-17T14:30:21.688Z,96974.47
2022-09-17T14:33:01.184Z,96982.25
2022-09-17T14:35:44.635Z,96987.31
2022-09-17T14:38:27.181Z,97002.03
2022-09-17T14:41:11.662Z,97006.44
2022-09-17T14:44:01.376Z,97007.31
2022-09-17T14:46:31.506Z,96994.34
2022-09-17T14:49:27.239Z,96987.13
2022-09-17T14:51:57.526Z,96986.72
2022-09-17T14:54:35.997Z,96975.13
2022-09-17T14:57:27.844Z,96980.25
2022-09-17T15:00:00.354Z,96977.41
2022-09-17T15:02:41.979Z,96970.25
2022-09-17T15:05:35.466Z,96965.13
2022-09-17T15:08:11.960Z,96961.25
2022-09-17T15:11:02.763Z,96958.34
2022-09-17T15:13:45.607Z,96949.66
2022-09-17T15:16:28.276Z,96950.69
2022-09-17T15:18:59.494Z,96957.47
2022-09-17T15:21:46.674Z,96964.69
2022-09-17T15:24:53.284Z,96964.25
2022-09-17T15:27:31.719Z,96970.38
2022-09-17T15:30:22.482Z,96969.25
2022-09-17T15:33:01.136Z,96978.47
2022-09-17T15:35:34.114Z,96978.66
2022-09-17T15:38:24.803Z,96980.81
2022-09-17T15:40:53.264Z,96981.28
2022-09-17T15:43:34.721Z,96982.16
2022-09-17T15:46:29.780Z,96981.63
2022-09-17T15:49:02.928Z,96985.06
2022-09-17T15:51:37.290Z,96988.50
2022-09-17T15:54:06.977Z,96990.13
2022-09-17T15:56:42.530Z,96980.59
2022-09-17T15:59:31.239Z,96973.84
2022-09-17T16:02:02.132Z,96971.06
2022-09-17T16:04:35.174Z,96980.75
2022-09-17T16:07:11.572Z,96970.38
2022-09-17T16:09:53.522Z,96972.88
2022-09-17T16:12:28.859Z,96982.41
2022-09-17T16:15:01.484Z,96985.03
2022-09-17T16:17:46.148Z,96980.25
2022-09-17T16:20:24.049Z,96988.78
2022-09-17T16:22:54.096Z,96985.19
2022-09-17T16:25:28.063Z,96986.00
2022-09-17T16:28:12.485Z,96983.66
2022-09-17T16:30:45.872Z,96982.19
2022-09-17T16:33:17.979Z,96986.13
2022-09-17T16:35:45.510Z,96988.72
2022-09-17T16:38:13.233Z,96983.44
2022-09-17T16:40:49.317Z,96980.13
2022-09-17T16:43:16.701Z,96986.50
2022-09-17T16:45:58.482Z,96985.97
2022-09-17T16:48:25.758Z,96983.63
2022-09-17T16:50:54.962Z,96991.13
2022-09-17T16:53:22.440Z,96983.41
2022-09-17T16:55:49.685Z,96988.47
2022-09-17T16:58:17.203Z,96989.22
2022-09-17T17:00:45.005Z,96980.53
2022-09-17T17:03:14.066Z,96988.03
2022-09-17T17:05:41.882Z,96985.56
2022-09-17T17:08:10.666Z,96979.13
2022-09-17T17:10:39.221Z,96985.19
2022-09-17T17:13:06.805Z,96976.50
2022-09-17T17:15:35.235Z,96974.38
2022-09-17T17:18:02.421Z,96968.28
2022-09-17T17:20:30.945Z,96971.03
2022-09-17T17:22:58.265Z,96968.59
2022-09-17T17:25:27.162Z,96971.69
2022-09-17T17:27:54.600Z,96967.56
2022-09-17T17:30:22.192Z,96962.31
2022-09-17T17:32:52.705Z,96952.66
2022-09-17T17:35:20.741Z,96950.03
2022-09-17T17:37:48.679Z,96952.31
2022-09-17T17:40:16.044Z,96955.13
2022-09-17T17:42:44.361Z,96942.97
2022-09-17T17:45:11.997Z,96954.78
2022-09-17T17:47:39.258Z,96955.28
2022-09-17T17:50:07.769Z,96955.88
2022-09-17T17:52:36.550Z,96956.53
2022-09-17T17:55:04.300Z,96959.66
2022-09-17T17:57:31.710Z,96956.69
2022-09-17T17:59:58.974Z,96961.56
2022-09-17T18:02:26.403Z,96961.06
2022-09-17T18:04:53.891Z,96966.75
2022-09-17T18:07:21.163Z,96964.47
2022-09-17T18:09:48.383Z,96966.41
2022-09-17T18:12:15.885Z,96978.03
2022-09-17T18:14:43.135Z,96977.88
2022-09-17T18:17:10.369Z,96986.91
2022-09-17T18:19:37.793Z,96971.28
2022-09-17T18:22:05.115Z,96978.19
2022-09-17T18:24:32.333Z,96981.72
2022-09-17T18:26:59.714Z,96979.41
2022-09-17T18:29:26.869Z,96983.00
2022-09-17T18:31:54.801Z,96984.28
2022-09-17T18:34:22.351Z,96980.97
2022-09-17T18:36:51.316Z,96991.47
2022-09-17T18:42:09.321Z,96989.31
2022-09-17T18:44:36.780Z,96979.66
2022-09-17T18:47:04.091Z,96984.06
2022-09-17T18:49:31.537Z,96981.88
2022-09-17T18:51:59.117Z,96975.97
2022-09-17T18:54:26.324Z,96967.78
2022-09-17T18:56:53.861Z,96975.66
2022-09-17T18:59:21.009Z,96977.63
2022-09-17T19:01:49.152Z,96985.19
2022-09-17T19:04:17.767Z,96981.44
2022-09-17T19:06:48.215Z,96980.06
2022-09-17T19:09:15.557Z,96986.16
2022-09-17T19:11:43.015Z,96986.59
2022-09-17T19:14:10.870Z,96986.22
2022-09-17T19:16:38.143Z,96987.66
2022-09-17T19:19:05.683Z,96997.16
2022-09-17T19:21:32.933Z,97001.06
2022-09-17T19:24:00.238Z,96996.63
2022-09-17T19:26:27.952Z,96993.50
2022-09-17T19:28:58.352Z,97001.13
2022-09-17T19:31:27.044Z,97001.44
2022-09-17T19:33:56.779Z,97005.44
2022-09-17T19:36:24.378Z,96997.88
2022-09-17T19:38:51.605Z,96987.69
2022-09-17T19:41:24.950Z,96988.25
2022-09-17T19:43:57.403Z,96994.78
2022-09-17T19:46:26.660Z,96990.50
2022-09-17T19:48:57.279Z,96994.97
2022-09-17T19:51:27.006Z,96988.38
2022-09-17T19:53:54.456Z,96994.19
2022-09-17T19:56:25.391Z,96983.41
2022-09-17T19:58:53.297Z,96992.94
2022-09-17T20:01:21.622Z,96995.78
2022-09-17T20:03:50.394Z,96997.88
2022-09-17T20:06:20.796Z,96989.63
2022-09-17T20:08:51.865Z,96987.97
2022-09-17T20:11:23.652Z,96994.03
2022-09-17T20:14:08.797Z,96983.72
2022-09-17T20:16:39.251Z,96986.59
2022-09-17T20:19:08.377Z,96985.66
2022-09-17T20:21:38.844Z,96994.34
2022-09-17T20:24:07.899Z,96986.69
2022-09-17T20:26:36.115Z,96980.63
2022-09-17T20:29:04.538Z,96991.09
2022-09-17T20:31:32.877Z,96984.47
2022-09-17T20:34:03.152Z,96985.91
2022-09-17T20:36:35.502Z,97000.19
2022-09-17T20:39:17.939Z,97003.69
2022-09-17T20:41:47.015Z,96992.69
2022-09-17T20:44:14.971Z,96999.72
2022-09-17T20:46:43.335Z,96993.91
2022-09-17T20:49:10.624Z,96992.94
2022-09-17T20:51:38.127Z,96988.25
2022-09-17T20:54:07.681Z,96992.72
2022-09-17T20:56:35.879Z,96988.84
2022-09-17T20:59:15.296Z,96990.38
2022-09-17T21:01:47.432Z,96993.13
2022-09-17T21:04:19.731Z,96979.78
2022-09-17T21:06:51.609Z,96980.50
2022-09-17T21:09:19.302Z,96979.78
2022-09-17T21:11:49.204Z,96978.97
2022-09-17T21:14:18.360Z,96977.63
2022-09-17T21:16:49.056Z,96972.91
2022-09-17T21:19:16.800Z,96981.47
2022-09-17T21:21:44.825Z,96977.75
2022-09-17T21:24:12.646Z,96983.41
2022-09-17T21:26:39.938Z,96979.03
2022-09-17T21:29:07.736Z,96979.56
2022-09-17T21:31:37.805Z,96983.13
2022-09-17T21:34:10.402Z,96972.94
2022-09-17T21:36:40.023Z,96978.75
2022-09-17T21:39:14.655Z,96977.22
2022-09-17T21:41:48.198Z,96977.81
2022-09-17T21:44:15.979Z,96973.56
2022-09-17T21:46:43.955Z,96968.03
2022-09-17T21:49:13.635Z,96980.13
2022-09-17T21:51:43.938Z,96971.75
2022-09-17T21:54:15.950Z,96981.94
2022-09-17T21:56:45.723Z,96977.66
2022-09-17T21:59:16.369Z,96979.72
2022-09-17T22:01:47.211Z,96976.28
2022-09-17T22:04:21.438Z,96988.38
2022-09-17T22:06:50.137Z,96992.13
2022-09-17T22:09:25.220Z,96980.00
2022-09-17T22:11:53.818Z,96981.53
2022-09-17T22:14:25.306Z,96980.44
2022-09-17T22:16:57.143Z,96977.41
2022-09-17T22:19:26.045Z,96980.19
2022-09-17T22:21:55.769Z,96984.44
2022-09-17T22:24:24.310Z,96980.84
2022-09-17T22:26:57.669Z,96987.59
2022-09-17T22:29:27.544Z,96986.09
2022-09-17T22:31:55.216Z,96976.16
2022-09-17T22:34:23.439Z,96976.31
2022-09-17T22:36:51.025Z,96968.75
2022-09-17T22:39:21.767Z,96971.91
2022-09-17T22:41:50.627Z,96966.13
2022-09-17T22:44:20.065Z,96966.53
2022-09-17T22:46:50.709Z,96960.38
2022-09-17T22:49:19.303Z,96964.06
2022-09-17T22:51:47.325Z,96959.94
2022-09-17T22:54:17.618Z,96958.41
2022-09-17T22:56:47.162Z,96961.03
2022-09-17T22:59:14.777Z,96952.47
2022-09-17T23:01:42.465Z,96956.06
2022-09-17T23:04:10.419Z,96960.22
2022-09-17T23:06:42.205Z,96954.00
2022-09-17T23:09:12.037Z,96955.81
2022-09-17T23:11:40.627Z,96956.50
2022-09-17T23:14:12.514Z,96953.06
2022-09-17T23:16:44.493Z,96954.44
2022-09-17T23:19:14.386Z,96959.25
2022-09-17T23:21:43.159Z,96968.47
2022-09-17T23:24:17.272Z,96969.44
2022-09-17T23:26:45.027Z,96963.78
2022-09-17T23:29:12.411Z,96966.84
2022-09-17T23:31:40.582Z,96966.00
2022-09-17T23:34:09.945Z,96965.03
2022-09-17T23:36:39.961Z,96968.16
2022-09-17T23:39:09.318Z,96961.75
2022-09-17T23:41:43.434Z,96964.88
2022-09-17T23:44:15.361Z,96962.00
2022-09-17T23:46:45.710Z,96960.22
2022-09-17T23:49:14.776Z,96963.66
2022-09-17T23:51:42.722Z,96966.41
2022-09-17T23:54:11.319Z,96962.94
2022-09-17T23:56:38.691Z,96969.28
2022-09-17T23:59:07.467Z,96967.50
